Home > Products > Valid Products > TAF

000
FTUS44 KMAF 262200 AAC
TAFMAF
TAF AMD
KMAF 262221Z 2622/2718 26016KT P6SM FEW110 SCT130 BKN140
     FM270200 26009KT P6SM FEW110 BKN120
     FM271300 30010KT P6SM OVC020
     FM271600 33018G28KT P6SM OVC035=



000
FTUS44 KMAF 262100 AAB
TAFMAF
TAF AMD
KMAF 262146Z 2622/2718 24016G26KT P6SM FEW120 SCT130 BKN140
     FM270200 26009KT P6SM FEW110 BKN120
     FM271300 30010KT P6SM OVC020
     FM271600 33018G28KT P6SM OVC035=



000
FTUS44 KMAF 262100 AAB
TAFMAF
TAF AMD
KMAF 262146Z 2622/2718 24016G26KT P6SM FEW120 SCT130 BKN140
     FM270200 26009KT P6SM FEW110 BKN120
     FM271300 30010KT P6SM OVC020
     FM271600 33018G28KT P6SM OVC035=



000
FTUS44 KMAF 261800 AAA
TAFMAF
TAF AMD
KMAF 261858Z 2619/2718 25014KT P6SM FEW100 BKN200
     FM262000 25020G30KT P6SM SCT120 BKN200
     FM262300 26025G34KT P6SM SCT120 BKN150
     FM270200 25012KT P6SM BKN150=



000
FTUS44 KMAF 261700
TAFMAF
TAF
KMAF 261721Z 2618/2718 27014KT P6SM BKN200
     FM262000 25020G30KT P6SM SCT120 BKN200
     FM262300 26025G34KT P6SM SCT120 BKN150
     FM270200 25012KT P6SM BKN150=



000
FTUS44 KMAF 261700
TAFMAF
TAF
KMAF 261721Z 2618/2718 27014KT P6SM BKN200
     FM262000 25020G30KT P6SM SCT120 BKN200
     FM262300 26025G34KT P6SM SCT120 BKN150
     FM270200 25012KT P6SM BKN150=



000
FTUS44 KMAF 261600 AAB
TAFMAF
TAF AMD
KMAF 261606Z 2616/2712 24015G22KT P6SM BKN200
     FM261700 27017G24KT P6SM BKN200
     FM262100 26025G32KT 5SM BLDU SCT110 BKN150
     FM270100 25014G22KT P6SM BKN150=



000
FTUS44 KMAF 261500 AAA
TAFMAF
TAF AMD
KMAF 261502Z 2615/2712 24007KT P6SM SCT150
     FM261600 27017G24KT P6SM BKN200
     FM262100 26025G32KT 5SM BLDU SCT110 BKN150
     FM270100 25014G22KT P6SM BKN150=



000
FTUS44 KMAF 261100
TAFMAF
TAF
KMAF 261120Z 2612/2712 24007KT P6SM SKC
     FM261500 27017G24KT P6SM BKN200
     FM262100 26025G32KT 5SM BLDU SCT110 BKN150
     FM270100 25014G22KT P6SM BKN150=



000
FTUS44 KMAF 260500
TAFMAF
TAF
KMAF 260520Z 2606/2706 24007KT P6SM SKC
     FM261500 27017G24KT P6SM BKN200
     FM262100 26025G32KT 5SM BLDU SCT110 BKN150
     FM270100 25014G22KT P6SM BKN150=



000
FTUS44 KMAF 260500
TAFMAF
TAF
KMAF 260520Z 2606/2706 24007KT P6SM SKC
     FM261500 27017G24KT P6SM BKN200
     FM262100 26025G32KT 5SM BLDU SCT110 BKN150
     FM270100 25014G22KT P6SM BKN150=



000
FTUS44 KMAF 252300
TAFMAF
TAF
KMAF 252332Z 2600/2624 25018G26KT P6SM SKC
     FM260200 22007KT P6SM SKC
     FM261600 25015G24KT P6SM SCT250=



000
FTUS44 KMAF 251700
TAFMAF
TAF
KMAF 251727Z 2518/2618 26018G28KT P6SM SKC
     FM260100 21007KT P6SM SKC
     FM261700 25015G24KT P6SM SCT250=



000
FTUS44 KMAF 251700
TAFMAF
TAF
KMAF 251727Z 2518/2618 26018G28KT P6SM SKC
     FM260100 21007KT P6SM SKC
     FM261700 25015G24KT P6SM SCT250=



000
FTUS44 KMAF 251400 AAB
TAFMAF
TAF AMD
KMAF 251456Z 2515/2612 28011KT P6SM SKC
     FM251500 28014G23KT P6SM SKC
     FM251700 25019G27KT P6SM SKC=



000
FTUS44 KMAF 251300 AAA
TAFMAF
TAF AMD
KMAF 251300Z 2513/2612 28011KT P6SM SKC
     FM251400 28014G23KT P6SM SKC
     FM251700 25019G27KT P6SM SKC=



000
FTUS44 KMAF 251100
TAFMAF
TAF
KMAF 251120Z 2512/2612 28011KT P6SM SKC
     FM251300 28014G23KT P6SM SKC
     FM251700 25019G27KT P6SM SKC=



000
FTUS44 KMAF 251000 AAA
TAFMAF
TAF AMD
KMAF 251002Z 2510/2606 29011KT P6SM SKC
     FM251400 28013G20KT P6SM SKC
     FM251700 25019G26KT P6SM SKC=



000
FTUS44 KMAF 251000 AAA
TAFMAF
TAF AMD
KMAF 251002Z 2510/2606 29011KT P6SM SKC
     FM251400 28013G20KT P6SM SKC
     FM251700 25019G26KT P6SM SKC=



000
FTUS44 KMAF 250500
TAFMAF
TAF
KMAF 250523Z 2506/2606 28013G19KT P6SM SKC
     FM250700 26009KT P6SM SKC
     FM251400 28013G20KT P6SM SKC
     FM251700 25019G26KT P6SM SKC=



000
FTUS44 KMAF 250100 AAA
TAFMAF
TAF AMD
KMAF 250111Z 2501/2524 27022G32KT P6SM SKC
     FM250200 26011KT P6SM SKC
     FM251700 25016G26KT P6SM SKC=



000
FTUS44 KMAF 250100 AAA
TAFMAF
TAF AMD
KMAF 250111Z 2501/2524 27022G32KT P6SM SKC
     FM250200 26011KT P6SM SKC
     FM251700 25016G26KT P6SM SKC=



000
FTUS44 KMAF 242300
TAFMAF
TAF
KMAF 242327Z 2500/2524 27022G32KT P6SM SKC
     FM250100 26011KT P6SM SKC
     FM251700 25016G26KT P6SM SKC=



000
FTUS44 KMAF 242300
TAFMAF
TAF
KMAF 242327Z 2500/2524 27022G32KT P6SM SKC
     FM250100 26011KT P6SM SKC
     FM251700 25016G26KT P6SM SKC=



000
FTUS44 KMAF 241900 AAA
TAFMAF
TAF AMD
KMAF 241937Z 2420/2518 27012G20KT P6SM FEW110
     FM242100 27022G32KT P6SM FEW250
     FM250100 25011KT P6SM SKC=



000
FTUS44 KMAF 241700
TAFMAF
TAF
KMAF 241725Z 2418/2518 22012G20KT P6SM FEW110
     FM242000 24022G32KT P6SM FEW250
     FM250100 25011KT P6SM SKC=



000
FTUS44 KMAF 241700
TAFMAF
TAF
KMAF 241725Z 2418/2518 22012G20KT P6SM FEW110
     FM242000 24022G32KT P6SM FEW250
     FM250100 25011KT P6SM SKC=



000
FTUS44 KMAF 241400 AAB
TAFMAF
TAF AMD
KMAF 241426Z 2414/2512 22011KT P6SM SCT070 BKN200
      TEMPO 2414/2416 VRB15G25KT TSRA BKN060CB
     FM241600 23012G20KT P6SM FEW110 BKN250
     FM241800 24020G29KT P6SM FEW250
     FM242100 26025G32KT 5SM BLDU FEW250
     FM250100 25011KT P6SM SKC=



000
FTUS44 KMAF 241400 AAB
TAFMAF
TAF AMD
KMAF 241426Z 2414/2512 22011KT P6SM SCT070 BKN200
      TEMPO 2414/2416 VRB15G25KT TSRA BKN060CB
     FM241600 23012G20KT P6SM FEW110 BKN250
     FM241800 24020G29KT P6SM FEW250
     FM242100 26025G32KT 5SM BLDU FEW250
     FM250100 25011KT P6SM SKC=



000
FTUS44 KMAF 241200 AAA
TAFMAF
TAF AMD
KMAF 241225Z 2412/2512 18011KT P6SM SCT070 BKN200
      TEMPO 2412/2415 VRB15G25KT -SHRA BKN100
     FM241500 22012G20KT P6SM FEW110 BKN250
     FM241800 24020G29KT P6SM FEW250
     FM242100 26025G32KT 5SM BLDU FEW250
     FM250100 25011KT P6SM SKC=



000
FTUS44 KMAF 241200 AAA
TAFMAF
TAF AMD
KMAF 241225Z 2412/2512 18011KT P6SM SCT070 BKN200
      TEMPO 2412/2415 VRB15G25KT -SHRA BKN100
     FM241500 22012G20KT P6SM FEW110 BKN250
     FM241800 24020G29KT P6SM FEW250
     FM242100 26025G32KT 5SM BLDU FEW250
     FM250100 25011KT P6SM SKC=



000
FTUS44 KMAF 241100
TAFMAF
TAF
KMAF 241123Z 2412/2512 18011KT P6SM SCT070 BKN100
     FM241500 22012G20KT P6SM FEW110 BKN250
     FM241800 24020G29KT P6SM FEW250
     FM242100 26025G32KT 5SM BLDU FEW250
     FM250100 25011KT P6SM SKC=



000
FTUS44 KMAF 241100
TAFMAF
TAF
KMAF 241123Z 2412/2512 18011KT P6SM SCT070 BKN100
     FM241500 22012G20KT P6SM FEW110 BKN250
     FM241800 24020G29KT P6SM FEW250
     FM242100 26025G32KT 5SM BLDU FEW250
     FM250100 25011KT P6SM SKC=



000
FTUS44 KMAF 240500 CCA
TAFMAF
TAF COR
KMAF 240538Z 2406/2506 25017G25KT P6SM -SHRA BKN110 OVC200
     FM240700 21011KT P6SM SCT110 OVC200
     FM241500 22014G22KT P6SM FEW110 BKN250
     FM242000 25025G32KT 5SM BLDU FEW250
     FM250100 25011KT P6SM FEW250=



000
FTUS44 KMAF 240500
TAFMAF
TAF
KMAF 240535Z 2406/2506 22017G25KT P6SM -SHRA BKN110 OVC200
     FM240700 21011KT P6SM SCT110 OVC200
     FM241500 22014G22KT P6SM FEW110 BKN250
     FM242000 25025G32KT 5SM BLDU FEW250
     FM250100 25011KT P6SM FEW250=



000
FTUS44 KMAF 240500
TAFMAF
TAF
KMAF 240535Z 2406/2506 22017G25KT P6SM -SHRA BKN110 OVC200
     FM240700 21011KT P6SM SCT110 OVC200
     FM241500 22014G22KT P6SM FEW110 BKN250
     FM242000 25025G32KT 5SM BLDU FEW250
     FM250100 25011KT P6SM FEW250=



000
FTUS44 KMAF 240400 AAC
TAFMAF
TAF AMD
KMAF 240418Z 2404/2424 22013G20KT P6SM SCT110 OVC200
      TEMPO 2404/2406 26023G30KT -SHRA
     FM240700 22011KT P6SM OVC200
     FM241500 25020G30KT P6SM BKN250=



000
FTUS44 KMAF 240400 AAC
TAFMAF
TAF AMD
KMAF 240418Z 2404/2424 22013G20KT P6SM SCT110 OVC200
      TEMPO 2404/2406 26023G30KT -SHRA
     FM240700 22011KT P6SM OVC200
     FM241500 25020G30KT P6SM BKN250=



000
FTUS44 KMAF 240300 CCA
TAFMAF
TAF COR
KMAF 240354Z 2404/2424 22013G20KT P6SM SCT110 OVC200
     FM240700 22011KT P6SM OVC200
     FM241500 25020G30KT P6SM BKN250=



000
FTUS44 KMAF 240300 AAB
TAFMAF
TAF AMD
KMAF 240345Z 2404/2424 22014G20KT P6SM OVC200
     FM240700 22011KT P6SM OVC200
     FM241500 25020G30KT P6SM BKN250=



000
FTUS44 KMAF 240200 AAA
TAFMAF
TAF AMD
KMAF 240245Z 2403/2424 22015G25KT P6SM OVC200
     FM241500 25020G30KT P6SM BKN250=



000
FTUS44 KMAF 240200 AAA
TAFMAF
TAF AMD
KMAF 240245Z 2403/2424 22015G25KT P6SM OVC200
     FM241500 25020G30KT P6SM BKN250=



000
FTUS44 KMAF 232300
TAFMAF
TAF
KMAF 232332Z 2400/2424 20013KT P6SM OVC200
     FM240200 21013KT P6SM OVC200
     FM241500 25020G30KT P6SM BKN250=



000
FTUS44 KMAF 232300
TAFMAF
TAF
KMAF 232332Z 2400/2424 20013KT P6SM OVC200
     FM240200 21013KT P6SM OVC200
     FM241500 25020G30KT P6SM BKN250=



    US Dept of Commerce
    National Oceanic and Atmospheric Administration
    National Weather Service
    1325 East West Highway
    Silver Spring, MD 20910
    Page Author: NWS Internet Services Team
Disclaimer
Information Quality
Credits
Glossary
Privacy Policy
Freedom of Information Act (FOIA)
About Us
Career Opportunities